Time;durP1;ratioP1;P1;durP2;ratioP2;P2;SDS_P1;SDS_P2;PMS_P1;PMS_P2;Temp;Humidity;BMP_temperature;BMP_pressure;BME280_temperature;BME280_humidity;BME280_pressure;Samples;Min_cycle;Max_cycle;Signal;HPM_P1;HPM_P2
2023/04/10 00:04:28;;;;;;;15.93;11.20;;;;;;;9.01;67.16;98659.09;12739208;23;20078;-78
2023/04/10 00:09:49;;;;;;;14.48;10.85;;;;;;;9.00;66.92;98657.59;12758749;23;20466;-78
2023/04/10 00:15:10;;;;;;;16.13;11.18;;;;;;;9.00;66.90;98665.22;12738269;23;20024;-78
2023/04/10 00:20:30;;;;;;;16.50;11.95;;;;;;;8.97;66.84;98652.41;12739139;23;20355;-78
2023/04/10 00:25:51;;;;;;;20.00;12.48;;;;;;;8.96;67.12;98637.00;12740411;23;20063;-78
2023/04/10 00:31:12;;;;;;;17.83;12.48;;;;;;;8.92;67.34;98636.66;12762820;23;20039;-78
2023/04/10 00:36:34;;;;;;;19.17;13.35;;;;;;;8.93;67.10;98635.34;12762515;23;20052;-78
2023/04/10 00:41:56;;;;;;;18.90;12.88;;;;;;;8.93;66.91;98627.00;12783551;23;20024;-78
2023/04/10 00:47:17;;;;;;;20.35;13.68;;;;;;;8.91;67.36;98624.03;12763584;23;20017;-78
2023/04/10 00:52:37;;;;;;;18.77;12.43;;;;;;;8.87;67.36;98618.84;12741911;23;20021;-78
2023/04/10 00:57:58;;;;;;;17.58;12.25;;;;;;;8.82;67.41;98611.44;12742355;23;20380;-78
2023/04/10 01:03:19;;;;;;;16.35;12.27;;;;;;;8.79;68.03;98615.38;12756625;23;20076;-78
2023/04/10 01:08:59;;;;;;;19.33;12.88;;;;;;;8.72;67.98;98608.53;12721907;23;20072;-79
2023/04/10 01:14:37;;;;;;;16.98;11.85;;;;;;;8.70;68.19;98605.56;12762092;23;20043;-78
2023/04/10 01:20:13;;;;;;;16.55;11.93;;;;;;;8.71;67.86;98603.53;12785318;23;20021;-78
2023/04/10 01:25:40;;;;;;;15.07;10.93;;;;;;;8.69;67.27;98611.69;12764503;23;20017;-78
2023/04/10 01:31:02;;;;;;;17.33;12.43;;;;;;;8.69;67.65;98606.88;12742786;23;20017;-78
2023/04/10 01:36:26;;;;;;;16.48;11.18;;;;;;;8.68;67.46;98605.34;12740918;23;20439;-78
2023/04/10 01:41:50;;;;;;;16.08;11.15;;;;;;;8.65;67.53;98609.28;12742071;23;20025;-78
2023/04/10 01:47:15;;;;;;;14.68;10.88;;;;;;;8.69;67.82;98618.00;12763216;23;20017;-78
2023/04/10 01:52:36;;;;;;;14.68;10.20;;;;;;;8.71;67.73;98609.09;12741258;23;20024;-78
2023/04/10 01:58:17;;;;;;;16.33;10.90;;;;;;;8.70;67.54;98605.56;12749126;23;20087;-78
2023/04/10 02:03:37;;;;;;;17.92;12.05;;;;;;;8.69;67.65;98606.13;12740877;23;20309;-78
2023/04/10 02:09:13;;;;;;;17.83;11.88;;;;;;;8.69;67.90;98609.66;12741295;23;20021;-79
2023/04/10 02:14:35;;;;;;;20.20;14.07;;;;;;;8.72;67.59;98607.78;12761521;23;20024;-78
2023/04/10 02:19:57;;;;;;;22.38;13.45;;;;;;;8.72;67.70;98614.09;12738925;23;20021;-78
2023/04/10 02:25:18;;;;;;;22.20;14.85;;;;;;;8.73;67.59;98621.13;12762081;23;20024;-78
2023/04/10 02:30:38;;;;;;;23.80;15.77;;;;;;;8.68;67.90;98616.50;12716888;23;20352;-79
2023/04/10 02:36:00;;;;;;;21.55;15.52;;;;;;;8.64;68.36;98624.50;12738168;23;20024;-78
2023/04/10 02:41:23;;;;;;;22.27;15.07;;;;;;;8.62;68.34;98615.97;12787370;23;20016;-78
2023/04/10 02:46:45;;;;;;;23.63;15.97;;;;;;;8.65;68.36;98614.09;12771723;23;20030;-79
2023/04/10 02:52:07;;;;;;;23.58;16.58;;;;;;;8.64;68.62;98615.41;12755302;23;20047;-79
2023/04/10 02:57:28;;;;;;;25.20;15.13;;;;;;;8.65;68.38;98612.06;12740060;23;20024;-78
2023/04/10 03:02:50;;;;;;;23.27;16.15;;;;;;;8.63;68.23;98613.94;12755712;23;20028;-78
2023/04/10 03:08:13;;;;;;;22.08;15.63;;;;;;;8.59;68.47;98622.66;12751843;23;20309;-79
2023/04/10 03:13:33;;;;;;;21.52;14.70;;;;;;;8.56;68.72;98618.94;12738154;23;20017;-78
2023/04/10 03:18:55;;;;;;;22.70;15.98;;;;;;;8.57;68.49;98626.00;12759846;23;20028;-78
2023/04/10 03:24:16;;;;;;;23.08;15.05;;;;;;;8.59;68.45;98612.28;12739524;23;20095;-78
2023/04/10 03:29:37;;;;;;;22.98;15.85;;;;;;;8.55;68.42;98617.47;12739555;23;20017;-78
2023/04/10 03:34:58;;;;;;;22.90;15.50;;;;;;;8.54;68.70;98610.44;12714948;23;20336;-78
2023/04/10 03:40:18;;;;;;;25.50;16.95;;;;;;;8.56;68.57;98615.41;12739189;23;20340;-78
2023/04/10 03:45:39;;;;;;;22.85;15.25;;;;;;;8.57;68.41;98614.13;12759785;23;20471;-78
2023/04/10 03:51:01;;;;;;;23.08;15.75;;;;;;;8.59;68.86;98619.88;12738788;23;20028;-78
2023/04/10 03:56:22;;;;;;;23.13;16.02;;;;;;;8.49;68.97;98622.50;12759976;23;20112;-78
2023/04/10 04:01:43;;;;;;;21.10;15.35;;;;;;;8.48;68.54;98623.78;12762854;23;20021;-79
2023/04/10 04:07:04;;;;;;;24.05;15.23;;;;;;;8.52;68.77;98624.16;12742635;23;20028;-78
2023/04/10 04:13:04;;;;;;;23.58;15.57;;;;;;;8.53;68.97;98624.91;12616663;23;20019;-78
2023/04/10 04:18:42;;;;;;;19.77;14.60;;;;;;;8.57;68.86;98625.25;12744506;23;20052;-78
2023/04/10 04:24:29;;;;;;;19.20;13.63;;;;;;;8.56;68.66;98640.47;12753112;23;20017;-78
2023/04/10 04:29:57;;;;;;;24.13;16.45;;;;;;;8.56;68.96;98632.13;12765265;23;20013;-78
2023/04/10 04:35:36;;;;;;;21.08;14.63;;;;;;;8.54;68.96;98645.84;12754183;23;20020;-78
2023/04/10 04:41:29;;;;;;;20.73;14.52;;;;;;;8.57;68.87;98644.72;12774568;23;20017;-78
2023/04/10 04:47:03;;;;;;;23.77;14.90;;;;;;;8.60;68.68;98644.38;12745499;23;20021;-78
2023/04/10 04:52:34;;;;;;;20.77;14.30;;;;;;;8.65;68.78;98653.06;12762378;23;20025;-78
2023/04/10 04:58:33;;;;;;;21.77;14.90;;;;;;;8.72;68.81;98644.69;12497918;23;20020;-79
2023/04/10 05:04:04;;;;;;;24.27;16.00;;;;;;;8.73;69.35;98653.78;12746515;23;20025;-78
2023/04/10 05:09:45;;;;;;;23.33;16.85;;;;;;;8.77;69.17;98660.44;12748919;23;20021;-79
2023/04/10 05:15:34;;;;;;;23.20;15.65;;;;;;;8.99;69.10;98658.91;12752118;23;20017;-78
2023/04/10 05:21:10;;;;;;;23.52;16.13;;;;;;;9.20;68.87;98672.56;12766858;23;20025;-78
2023/04/10 05:26:52;;;;;;;22.33;15.65;;;;;;;9.46;68.50;98674.13;12771478;23;20086;-78
2023/04/10 05:32:39;;;;;;;24.38;17.02;;;;;;;9.79;68.52;98674.84;12740615;23;20025;-78
2023/04/10 05:38:16;;;;;;;23.23;17.20;;;;;;;10.08;67.95;98682.84;12770671;23;20017;-78
2023/04/10 05:44:00;;;;;;;28.73;20.23;;;;;;;10.35;67.91;98680.22;12730124;23;20036;-77
2023/04/10 05:49:30;;;;;;;29.02;21.75;;;;;;;10.55;67.14;98685.44;12749860;23;20017;-78
2023/04/10 05:55:04;;;;;;;33.28;23.67;;;;;;;10.76;66.78;98690.63;12752017;23;20017;-78
2023/04/10 06:01:04;;;;;;;26.63;19.98;;;;;;;10.87;65.86;98687.34;12474030;23;20087;-78
2023/04/10 06:06:35;;;;;;;25.90;18.67;;;;;;;11.05;65.65;98681.75;12753059;23;20029;-78
2023/04/10 06:11:56;;;;;;;26.25;18.50;;;;;;;11.06;64.97;98686.00;12768241;23;20021;-78
2023/04/10 06:17:20;;;;;;;24.23;17.75;;;;;;;11.26;65.14;98684.84;12768304;23;20017;-79
2023/04/10 06:22:41;;;;;;;24.60;17.92;;;;;;;11.77;64.69;98688.81;12770818;23;20021;-78
2023/04/10 06:28:02;;;;;;;24.38;17.95;;;;;;;12.24;63.60;98686.84;12749780;23;20028;-78
2023/04/10 06:33:22;;;;;;;27.42;19.90;;;;;;;13.20;62.64;98682.72;12768036;23;20036;-77
2023/04/10 06:38:46;;;;;;;28.70;20.35;;;;;;;14.80;57.85;98693.06;12769415;23;20071;-77
2023/04/10 06:44:07;;;;;;;24.42;19.27;;;;;;;17.21;53.89;98697.25;12766878;23;20020;-77
2023/04/10 06:49:27;;;;;;;28.13;20.83;;;;;;;17.06;48.30;98690.78;12763536;23;20075;-77
2023/04/10 06:54:48;;;;;;;21.90;18.45;;;;;;;20.81;38.76;98698.13;12759185;23;20016;-75
2023/04/10 07:00:09;;;;;;;22.95;17.08;;;;;;;20.41;46.00;98697.09;12779509;23;20024;-75
2023/04/10 07:05:30;;;;;;;20.20;17.55;;;;;;;21.85;41.85;98696.66;12744328;23;20021;-75
2023/04/10 07:10:51;;;;;;;20.75;15.95;;;;;;;26.64;37.46;98699.78;12750857;23;20017;-78
2023/04/10 07:16:12;;;;;;;13.95;12.63;;;;;;;34.03;31.67;98711.59;12778430;23;20017;-79
2023/04/10 07:21:32;;;;;;;14.60;12.85;;;;;;;31.60;24.34;98704.31;12756621;23;20428;-78
2023/04/10 07:26:53;;;;;;;14.40;12.90;;;;;;;33.97;21.43;98691.38;12798329;23;20026;-78
2023/04/10 07:32:14;;;;;;;10.07;9.18;;;;;;;37.40;17.40;98696.16;12777788;23;20088;-79
2023/04/10 07:37:35;;;;;;;11.15;10.10;;;;;;;39.29;16.42;98689.97;12757811;23;20020;-82
2023/04/10 07:42:56;;;;;;;9.48;8.60;;;;;;;40.75;13.55;98683.25;12756459;23;20017;-83
2023/04/10 07:48:17;;;;;;;9.82;8.95;;;;;;;40.83;10.81;98688.78;12777407;23;20036;-82
2023/04/10 07:53:39;;;;;;;8.95;8.15;;;;;;;41.85;9.91;98675.75;12758344;23;20021;-82
2023/04/10 07:59:00;;;;;;;7.53;6.78;;;;;;;42.08;9.90;98672.53;12777975;23;20025;-83
2023/04/10 08:04:23;;;;;;;6.30;5.80;;;;;;;43.45;9.57;98667.44;12761398;23;20024;-89
2023/04/10 08:09:45;;;;;;;6.05;5.45;;;;;;;44.83;9.23;98671.75;12759393;23;20024;-84
2023/04/10 08:15:06;;;;;;;6.25;5.65;;;;;;;45.31;8.48;98675.69;12738094;23;20015;-90
2023/04/10 08:20:38;;;;;;;5.13;4.53;;;;;;;45.25;6.79;98664.91;12737649;23;20017;-90
2023/04/10 08:26:02;;;;;;;4.00;3.60;;;;;;;45.10;6.56;98665.06;12761039;23;20070;-89
2023/04/10 08:31:24;;;;;;;4.45;3.95;;;;;;;44.92;6.08;98665.44;12758136;23;20021;-90
2023/04/10 08:36:45;;;;;;;5.05;3.75;;;;;;;45.33;5.98;98660.81;12737546;23;20017;-82
2023/04/10 08:42:06;;;;;;;4.18;3.88;;;;;;;45.83;6.09;98650.44;12757649;23;20432;-82
2023/04/10 08:47:27;;;;;;;7.63;5.38;;;;;;;45.61;5.77;98649.56;12739006;23;20013;-82
2023/04/10 08:52:50;;;;;;;5.60;5.10;;;;;;;39.85;8.04;98647.88;12761478;23;20020;-82
2023/04/10 08:58:12;;;;;;;5.22;4.82;;;;;;;42.35;7.29;98642.72;12740583;23;20017;-82
2023/04/10 09:03:33;;;;;;;6.07;5.47;;;;;;;42.18;7.16;98649.34;12761378;23;20487;-89
2023/04/10 09:08:58;;;;;;;5.45;4.97;;;;;;;43.38;7.16;98634.72;12751930;23;20562;-93
2023/04/10 09:14:26;;;;;;;4.95;4.55;;;;;;;43.60;6.53;98632.13;12743365;23;20020;-82
2023/04/10 09:19:51;;;;;;;5.40;4.90;;;;;;;36.09;9.30;98634.41;12761257;23;20484;-82
2023/04/10 09:25:30;;;;;;;6.03;5.53;;;;;;;35.79;11.39;98627.00;12740807;23;20009;-82
2023/04/10 09:30:50;;;;;;;5.90;5.40;;;;;;;34.71;11.38;98628.13;12739982;23;20029;-82
2023/04/10 09:36:11;;;;;;;6.15;5.65;;;;;;;40.73;9.45;98616.00;12759385;23;20020;-81
2023/04/10 09:41:33;;;;;;;5.40;4.65;;;;;;;42.60;7.13;98627.63;12719549;23;20505;-82
2023/04/10 09:46:54;;;;;;;4.90;4.50;;;;;;;40.32;7.89;98614.69;12735504;23;20047;-82
2023/04/10 09:52:20;;;;;;;4.53;4.13;;;;;;;39.34;8.12;98605.84;12739979;23;20017;-82
2023/04/10 09:57:41;;;;;;;4.70;4.30;;;;;;;39.12;8.55;98595.69;12738576;23;20013;-82
2023/04/10 10:03:02;;;;;;;4.80;4.40;;;;;;;37.32;9.31;98576.31;12776334;23;20829;-80
2023/04/10 10:08:24;;;;;;;5.10;4.70;;;;;;;37.77;10.41;98576.50;12719843;23;20027;-89
2023/04/10 10:13:51;;;;;;;5.15;4.75;;;;;;;40.53;8.21;98564.91;12761059;23;20017;-92
2023/04/10 10:19:22;;;;;;;5.50;5.00;;;;;;;31.60;11.64;98565.13;12759928;23;20490;-89
2023/04/10 10:24:55;;;;;;;5.88;4.90;;;;;;;33.18;12.90;98571.34;12749657;23;20021;-96
2023/04/10 10:30:20;;;;;;;5.40;4.90;;;;;;;35.41;11.42;98563.88;12740914;23;20017;-96
2023/04/10 10:35:52;;;;;;;5.90;5.40;;;;;;;34.52;10.14;98554.53;12791174;22;20031;-95
2023/04/10 10:41:34;;;;;;;6.53;5.90;;;;;;;30.21;14.25;98541.41;12826383;23;20432;-93
2023/04/10 10:47:03;;;;;;;6.65;5.88;;;;;;;32.19;14.07;98535.97;12802540;23;20023;-92
2023/04/10 10:52:44;;;;;;;6.15;5.63;;;;;;;38.27;10.09;98535.69;12799447;23;20012;-81
2023/04/10 10:58:09;;;;;;;5.53;5.03;;;;;;;39.62;8.32;98539.91;12841790;23;20362;-81
2023/04/10 11:03:30;;;;;;;6.55;5.95;;;;;;;34.07;10.41;98526.22;12841125;23;20040;-80
2023/04/10 11:08:52;;;;;;;6.68;5.95;;;;;;;32.67;11.81;98517.59;12778703;23;20017;-78
2023/04/10 11:14:16;;;;;;;7.70;6.90;;;;;;;28.87;14.20;98509.81;12798961;23;20021;-78
2023/04/10 11:20:00;;;;;;;7.70;6.93;;;;;;;26.70;16.33;98485.09;12818884;23;20080;-76
2023/04/10 11:25:21;;;;;;;7.03;6.32;;;;;;;25.93;17.14;98473.78;12778715;23;20017;-76
2023/04/10 11:30:42;;;;;;;8.27;6.60;;;;;;;24.38;19.74;98474.72;12798831;23;20016;-77
2023/04/10 11:36:04;;;;;;;7.38;6.57;;;;;;;23.02;21.25;98492.34;12815105;23;20021;-79
2023/04/10 11:41:30;;;;;;;8.70;6.85;;;;;;;23.09;21.37;98473.34;12798428;23;20447;-87
2023/04/10 11:46:51;;;;;;;7.95;6.72;;;;;;;23.04;21.35;98466.78;12798402;23;20432;-83
2023/04/10 11:52:12;;;;;;;7.97;6.60;;;;;;;23.48;21.28;98460.94;12777951;23;20040;-80
2023/04/10 11:57:36;;;;;;;8.05;6.60;;;;;;;23.16;21.35;98462.84;12796543;23;20234;-80
2023/04/10 12:02:57;;;;;;;8.40;6.72;;;;;;;23.67;21.50;98447.94;12795000;23;20017;-80
2023/04/10 12:08:18;;;;;;;7.60;6.80;;;;;;;23.26;21.32;98437.50;12819086;23;20013;-81
2023/04/10 12:13:39;;;;;;;7.63;6.18;;;;;;;23.21;21.48;98430.25;12819610;23;20020;-79
2023/04/10 12:19:01;;;;;;;7.18;6.03;;;;;;;23.82;21.03;98417.66;12798127;23;20097;-83
2023/04/10 12:24:45;;;;;;;6.93;5.60;;;;;;;22.52;21.33;98428.88;12759329;23;20024;-83
2023/04/10 12:30:07;;;;;;;6.53;5.30;;;;;;;21.68;22.61;98402.66;12800554;23;20105;-83
2023/04/10 12:35:41;;;;;;;6.80;5.47;;;;;;;21.58;22.69;98408.72;12775661;23;20324;-82
2023/04/10 12:41:02;;;;;;;7.07;5.47;;;;;;;20.72;22.09;98396.34;12779708;23;20052;-79
2023/04/10 12:46:25;;;;;;;5.97;5.00;;;;;;;20.36;23.16;98392.81;12799820;23;20067;-80
2023/04/10 12:51:50;;;;;;;6.05;4.97;;;;;;;21.01;23.26;98378.28;12798716;23;20023;-81
2023/04/10 12:57:25;;;;;;;5.05;4.43;;;;;;;20.90;22.95;98367.22;12778296;23;20041;-81
2023/04/10 13:02:46;;;;;;;6.68;4.70;;;;;;;19.79;23.62;98361.47;12797060;23;20013;-82
2023/04/10 13:08:09;;;;;;;5.60;4.32;;;;;;;18.95;24.70;98355.06;12778555;23;20021;-93
2023/04/10 13:13:31;;;;;;;5.32;4.45;;;;;;;19.27;24.65;98340.88;12779761;23;20017;-83
2023/04/10 13:18:52;;;;;;;4.93;4.07;;;;;;;19.85;23.99;98336.94;12802103;23;20522;-84
2023/04/10 13:24:14;;;;;;;4.75;4.22;;;;;;;19.65;23.43;98319.88;12781406;23;20271;-85
2023/04/10 13:29:39;;;;;;;5.20;4.07;;;;;;;19.67;23.71;98316.38;12780831;23;20017;-84
2023/04/10 13:35:01;;;;;;;6.78;4.40;;;;;;;19.31;23.96;98315.59;12780642;23;20506;-90
2023/04/10 13:40:22;;;;;;;5.55;3.95;;;;;;;19.03;24.82;98312.28;12780117;23;20017;-85
2023/04/10 13:45:43;;;;;;;5.47;4.38;;;;;;;19.32;24.72;98303.63;12779614;23;20013;-84
2023/04/10 13:51:04;;;;;;;4.47;3.72;;;;;;;19.49;24.41;98305.00;12780166;23;20009;-78
2023/04/10 13:56:25;;;;;;;6.45;4.63;;;;;;;18.96;24.41;98302.06;12780464;23;20056;-80
2023/04/10 14:01:49;;;;;;;4.82;4.07;;;;;;;19.03;24.92;98295.28;12760047;23;20013;-80
2023/04/10 14:07:11;;;;;;;5.43;4.50;;;;;;;18.80;25.10;98290.75;12780450;23;20021;-82
2023/04/10 14:12:32;;;;;;;4.65;3.85;;;;;;;19.00;25.17;98291.63;12779720;23;20424;-81
2023/04/10 14:17:55;;;;;;;;;;;;;;;18.83;25.42;98295.16;12801098;23;20026;-76
2023/04/10 14:23:16;;;;;;;10.20;6.75;;;;;;;18.38;25.73;98286.72;12821561;23;19916;-82
2023/04/10 14:28:38;;;;;;;6.05;4.63;;;;;;;17.80;26.50;98272.06;12778862;23;20440;-82
2023/04/10 14:33:59;;;;;;;6.72;4.80;;;;;;;17.37;26.25;98263.59;12780112;23;20017;-82
2023/04/10 14:39:23;;;;;;;7.70;5.60;;;;;;;17.17;27.27;98271.78;12760849;23;20024;-84
2023/04/10 14:44:44;;;;;;;6.70;4.75;;;;;;;17.31;27.21;98260.50;12759321;23;20444;-82
2023/04/10 14:50:05;;;;;;;6.82;5.28;;;;;;;17.20;28.00;98247.97;12778500;23;20017;-83
2023/04/10 14:55:30;;;;;;;7.60;5.60;;;;;;;17.22;28.43;98239.59;12758970;23;20021;-83
2023/04/10 15:00:51;;;;;;;5.25;4.05;;;;;;;17.31;27.88;98233.00;12798323;23;20017;-83
2023/04/10 15:06:13;;;;;;;5.07;4.28;;;;;;;17.54;27.73;98219.97;12777019;23;20017;-90
2023/04/10 15:11:34;;;;;;;6.55;4.63;;;;;;;17.73;27.83;98227.97;12758569;23;20439;-83
2023/04/10 15:16:55;;;;;;;4.97;4.13;;;;;;;17.34;27.59;98234.56;12758410;23;20021;-88
2023/04/10 15:22:17;;;;;;;5.90;4.32;;;;;;;17.25;27.62;98212.22;12758221;23;20023;-85
2023/04/10 15:27:38;;;;;;;6.60;4.57;;;;;;;17.18;28.12;98208.38;12779631;23;20457;-85
2023/04/10 15:32:59;;;;;;;5.45;4.47;;;;;;;16.78;28.01;98204.25;12798885;23;20486;-83
2023/04/10 15:38:31;;;;;;;5.43;4.20;;;;;;;16.69;28.16;98197.47;12779972;23;20025;-76
2023/04/10 15:43:52;;;;;;;5.57;4.55;;;;;;;16.75;28.67;98189.34;12759110;23;20040;-76
2023/04/10 15:49:16;;;;;;;5.50;4.25;;;;;;;16.86;28.55;98180.03;12757672;23;20392;-76
2023/04/10 15:54:54;;;;;;;6.32;4.55;;;;;;;17.03;28.51;98178.75;12766931;23;20022;-76
2023/04/10 16:00:15;;;;;;;5.28;4.28;;;;;;;16.96;28.39;98156.50;12804400;23;20017;-83
2023/04/10 16:05:52;;;;;;;6.30;5.15;;;;;;;16.73;28.62;98146.25;12769182;23;20028;-81
2023/04/10 16:11:13;;;;;;;5.40;4.40;;;;;;;16.17;28.98;98141.97;12743444;23;20215;-79
2023/04/10 16:16:34;;;;;;;5.57;4.55;;;;;;;15.95;29.85;98147.88;12768055;23;20037;-78
2023/04/10 16:21:56;;;;;;;5.38;4.53;;;;;;;15.57;30.13;98124.03;12813591;23;20103;-80
2023/04/10 16:27:16;;;;;;;6.05;4.63;;;;;;;15.35;30.72;98128.44;12789898;23;20022;-80
2023/04/10 16:32:37;;;;;;;7.05;5.05;;;;;;;15.22;31.99;98120.66;12787555;23;20428;-78
2023/04/10 16:37:58;;;;;;;5.72;4.68;;;;;;;14.90;32.06;98114.72;12773740;23;20017;-80
2023/04/10 16:43:19;;;;;;;6.47;4.20;;;;;;;14.81;31.62;98104.34;12785494;23;20008;-82
2023/04/10 16:48:45;;;;;;;6.13;4.75;;;;;;;14.69;32.04;98103.66;12774521;23;20017;-86
2023/04/10 16:54:06;;;;;;;5.30;4.20;;;;;;;14.62;32.12;98094.16;12835143;23;20021;-80
2023/04/10 16:59:27;;;;;;;8.77;5.47;;;;;;;14.56;31.98;98088.19;12805323;23;20028;-76
2023/04/10 17:04:48;;;;;;;7.15;5.03;;;;;;;14.42;32.63;98092.97;12775589;23;20029;-78
2023/04/10 17:10:09;;;;;;;7.15;5.32;;;;;;;14.27;32.81;98080.16;12820045;23;20021;-78
2023/04/10 17:15:30;;;;;;;7.32;5.13;;;;;;;14.22;33.13;98079.22;12829704;23;20013;-80
2023/04/10 17:20:51;;;;;;;7.18;5.78;;;;;;;14.10;33.84;98084.13;12847085;23;20025;-79
2023/04/10 17:26:14;;;;;;;8.90;5.95;;;;;;;14.08;33.75;98083.25;12828726;23;20009;-81
2023/04/10 17:37:49;;;;;;;6.68;5.07;;;;;;;14.03;34.14;98073.88;12792310;23;20032;-83
2023/04/10 17:43:37;;;;;;;8.32;5.47;;;;;;;13.96;34.06;98067.16;12776281;23;20021;-80
2023/04/10 17:48:59;;;;;;;7.82;5.68;;;;;;;13.86;34.25;98069.34;12734323;23;20332;-75
2023/04/10 17:54:21;;;;;;;7.88;5.38;;;;;;;13.79;34.43;98066.78;12737900;23;20025;-75
2023/04/10 17:59:42;;;;;;;7.60;5.38;;;;;;;13.74;34.68;98065.81;12733160;23;20017;-75
2023/04/10 18:05:02;;;;;;;7.55;5.70;;;;;;;13.69;34.71;98066.91;12787110;23;20021;-76
2023/04/10 18:10:23;;;;;;;8.50;6.32;;;;;;;13.59;35.17;98055.06;12816193;23;20024;-74
2023/04/10 18:15:44;;;;;;;8.95;6.55;;;;;;;13.51;35.16;98048.97;12771842;23;20436;-75
2023/04/10 18:21:05;;;;;;;8.38;5.47;;;;;;;13.44;35.54;98050.69;12814556;23;20024;-75
2023/04/10 18:26:32;;;;;;;8.30;5.70;;;;;;;13.37;35.70;98043.25;12835544;23;20051;-75
2023/04/10 18:31:53;;;;;;;8.25;5.90;;;;;;;13.31;35.87;98045.66;12815267;23;20348;-75
2023/04/10 18:37:15;;;;;;;9.23;5.93;;;;;;;13.29;35.41;98048.34;12787900;23;20017;-73
2023/04/10 18:42:35;;;;;;;8.23;6.13;;;;;;;13.25;36.06;98043.22;12788921;23;20025;-75
2023/04/10 18:47:56;;;;;;;6.72;5.78;;;;;;;13.17;36.05;98046.22;12814134;23;20017;-75
2023/04/10 18:53:17;;;;;;;8.30;6.03;;;;;;;13.10;36.01;98047.19;12774397;23;20017;-75
2023/04/10 18:58:39;;;;;;;8.07;6.28;;;;;;;12.94;36.63;98031.44;12842185;23;20440;-75
2023/04/10 19:04:00;;;;;;;8.00;5.95;;;;;;;12.88;36.53;98029.72;12787169;23;20017;-74
2023/04/10 19:09:21;;;;;;;9.40;6.18;;;;;;;12.85;36.80;98027.41;12816303;23;20020;-75
2023/04/10 19:14:42;;;;;;;10.45;6.53;;;;;;;12.80;36.99;98020.78;12840571;23;20020;-78
2023/04/10 19:20:04;;;;;;;10.18;6.72;;;;;;;12.61;37.42;98012.56;12819884;23;20017;-77
2023/04/10 19:25:24;;;;;;;9.13;6.72;;;;;;;12.50;37.77;98005.59;12818307;23;20020;-77
2023/04/10 19:30:45;;;;;;;9.23;6.00;;;;;;;12.38;37.35;98004.09;12819918;23;20013;-77
2023/04/10 19:36:06;;;;;;;9.35;6.55;;;;;;;12.26;38.08;97990.06;12795996;23;20081;-79
2023/04/10 19:41:28;;;;;;;8.05;6.22;;;;;;;12.13;38.17;97977.31;12797581;23;20044;-77
2023/04/10 19:46:48;;;;;;;8.65;6.40;;;;;;;12.11;38.94;97988.38;12820034;23;20096;-79
2023/04/10 19:52:09;;;;;;;11.98;6.20;;;;;;;12.01;39.04;97982.13;12786378;23;20076;-78
2023/04/10 19:57:30;;;;;;;9.80;6.53;;;;;;;11.96;38.89;97977.59;12786286;23;20017;-78
2023/04/10 20:02:51;;;;;;;10.13;7.05;;;;;;;11.91;39.87;97978.66;12806398;23;20025;-78
2023/04/10 20:08:16;;;;;;;10.82;7.45;;;;;;;11.95;39.39;97962.13;12768507;23;20063;-77
2023/04/10 20:13:38;;;;;;;12.07;8.10;;;;;;;11.90;39.98;97944.38;12765340;23;20013;-77
2023/04/10 20:18:59;;;;;;;12.60;9.00;;;;;;;11.79;39.68;97941.50;12788835;23;20309;-77
2023/04/10 20:24:20;;;;;;;12.75;9.05;;;;;;;11.68;40.29;97943.63;12791343;23;20044;-77
2023/04/10 20:29:41;;;;;;;10.43;7.53;;;;;;;11.62;40.48;97940.41;12790622;23;20025;-77
2023/04/10 20:35:02;;;;;;;10.88;8.05;;;;;;;11.59;40.90;97941.63;12801210;23;20017;-77
2023/04/10 20:40:22;;;;;;;11.68;8.07;;;;;;;11.58;41.20;97934.56;12810758;23;20024;-77
2023/04/10 20:45:43;;;;;;;11.60;8.07;;;;;;;11.59;41.02;97936.03;12815130;23;20021;-77
2023/04/10 20:51:04;;;;;;;10.27;7.57;;;;;;;11.48;41.04;97933.84;12815428;23;20024;-77
2023/04/10 20:56:25;;;;;;;9.23;7.45;;;;;;;11.41;41.68;97929.22;12836078;23;20436;-78
2023/04/10 21:01:57;;;;;;;12.48;8.20;;;;;;;11.34;41.58;97922.47;12821057;23;20017;-77
2023/04/10 21:07:17;;;;;;;10.73;7.55;;;;;;;11.18;42.20;97916.50;12776154;23;20017;-77
2023/04/10 21:12:38;;;;;;;12.10;7.82;;;;;;;11.08;42.53;97910.25;12795022;23;20440;-77
2023/04/10 21:17:59;;;;;;;11.55;8.18;;;;;;;11.05;42.66;97911.44;12836019;23;20021;-77
2023/04/10 21:23:20;;;;;;;14.40;8.57;;;;;;;10.96;43.46;97905.91;12858517;23;20021;-77
2023/04/10 21:28:41;;;;;;;12.35;8.52;;;;;;;10.89;43.41;97897.09;12795944;23;20021;-77
2023/04/10 21:34:02;;;;;;;14.50;9.48;;;;;;;10.79;43.94;97888.00;12791620;23;20021;-77
2023/04/10 21:39:23;;;;;;;13.20;8.98;;;;;;;10.82;43.68;97894.50;12797487;23;20091;-77
2023/04/10 21:44:43;;;;;;;13.23;9.30;;;;;;;10.81;44.02;97890.25;12813450;23;20068;-77
2023/04/10 21:50:05;;;;;;;12.23;8.43;;;;;;;10.77;44.40;97885.09;12794424;23;20387;-77
2023/04/10 21:55:26;;;;;;;12.30;8.52;;;;;;;10.76;44.23;97889.22;12813818;23;20024;-77
2023/04/10 22:00:48;;;;;;;14.55;9.30;;;;;;;10.78;45.12;97869.06;12813940;23;20013;-77
2023/04/10 22:06:09;;;;;;;13.95;9.60;;;;;;;10.71;45.26;97847.63;12799109;23;20017;-77
2023/04/10 22:11:30;;;;;;;16.90;9.68;;;;;;;10.66;44.49;97845.91;12770759;23;20028;-77
2023/04/10 22:16:51;;;;;;;13.43;8.70;;;;;;;10.69;44.62;97839.13;12812383;23;20021;-77
2023/04/10 22:22:11;;;;;;;12.25;8.73;;;;;;;10.67;45.00;97836.22;12812485;23;20321;-77
2023/04/10 22:27:32;;;;;;;13.80;9.23;;;;;;;10.63;45.58;97830.34;12811135;23;20028;-77
2023/04/10 22:32:56;;;;;;;14.60;9.57;;;;;;;10.55;45.28;97831.25;12831839;23;20013;-77
2023/04/10 22:38:16;;;;;;;12.07;8.90;;;;;;;10.43;46.41;97824.84;12790104;23;20024;-77
2023/04/10 22:43:46;;;;;;;13.20;9.07;;;;;;;10.31;45.93;97830.28;12811636;23;20021;-77
2023/04/10 22:49:07;;;;;;;12.18;8.80;;;;;;;10.22;45.68;97819.16;12790895;23;20017;-77
2023/04/10 22:54:28;;;;;;;13.48;9.55;;;;;;;10.23;46.10;97824.16;12832173;23;20013;-77
2023/04/10 22:59:49;;;;;;;14.43;9.02;;;;;;;10.21;45.83;97810.03;12812717;23;20017;-77
2023/04/10 23:05:10;;;;;;;11.80;8.13;;;;;;;10.14;46.07;97810.22;12801163;23;20024;-77
2023/04/10 23:10:33;;;;;;;14.50;8.25;;;;;;;9.96;46.33;97790.88;12821164;23;20012;-78
2023/04/10 23:15:54;;;;;;;12.93;8.05;;;;;;;9.87;46.53;97783.25;12791457;23;20017;-77
2023/04/10 23:21:15;;;;;;;12.73;8.38;;;;;;;9.74;47.10;97759.34;12788534;23;20013;-77
2023/04/10 23:26:36;;;;;;;13.02;9.15;;;;;;;9.65;47.66;97734.28;12807648;23;20028;-77
2023/04/10 23:31:56;;;;;;;13.75;8.90;;;;;;;9.48;47.80;97720.53;12744678;23;20312;-77
2023/04/10 23:37:17;;;;;;;14.82;9.48;;;;;;;9.25;48.41;97746.06;12767421;23;20021;-77
2023/04/10 23:42:38;;;;;;;14.48;9.13;;;;;;;9.25;48.79;97737.69;12765281;23;20021;-77
2023/04/10 23:47:59;;;;;;;16.83;9.02;;;;;;;9.34;48.90;97723.75;12805906;23;20017;-77
2023/04/10 23:53:20;;;;;;;13.63;9.05;;;;;;;9.44;48.50;97716.13;12785776;23;20040;-77
2023/04/10 23:58:40;;;;;;;15.10;9.10;;;;;;;9.58;48.54;97708.06;12805896;23;20020;-77
